Bielsa, Aragón

latitud= 42° 37' 48''N |longitud= 000° 13' 29''E
990 metros sobre el nivel del mar | datos mensuales

Fecha, hora, temperatura, viento dirección y velocidad, humedad y presión.

  • 14-10-2018 19:00:00 | 10.10°C | Sudeste |3.00 km/h | 98.00% | 897.80 hPa
  • 14-10-2018 18:00:00 | 10.30°C | Calma |0.00 km/h | 95.00% | 897.40 hPa
  • 14-10-2018 17:00:00 | 11.90°C | Norte |9.00 km/h | 91.00% | 896.70 hPa
  • 14-10-2018 16:00:00 | 14.40°C | Sudeste |6.00 km/h | 91.00% | 894.60 hPa
  • 14-10-2018 15:00:00 | 15.40°C | Sudeste |8.00 km/h | 85.00% | 894.60 hPa
  • 14-10-2018 14:00:00 | 16.70°C | Sudeste |6.00 km/h | 77.00% | 895.00 hPa
  • 14-10-2018 13:00:00 | 17.60°C | Sudeste |6.00 km/h | 70.00% | 896.70 hPa
  • 14-10-2018 12:00:00 | 16.60°C | Sudeste |5.00 km/h | 76.00% | 897.30 hPa
  • 14-10-2018 11:00:00 | 15.30°C | Sur |5.00 km/h | 88.00% | 898.00 hPa
  • 14-10-2018 10:00:00 | 15.00°C | Sudeste |5.00 km/h | 85.00% | 898.10 hPa
  • 14-10-2018 09:00:00 | 14.50°C | Sudeste |4.00 km/h | 89.00% | 898.40 hPa
  • 14-10-2018 08:00:00 | 14.80°C | Sudeste |5.00 km/h | 84.00% | 898.40 hPa
  • 14-10-2018 07:00:00 | 15.00°C | Sudeste |5.00 km/h | 84.00% | 899.10 hPa
  • 14-10-2018 06:00:00 | 15.40°C | Sudeste |7.00 km/h | 84.00% | 899.70 hPa
  • 14-10-2018 05:00:00 | 15.20°C | Sudeste |4.00 km/h | 86.00% | 900.10 hPa
  • 14-10-2018 04:00:00 | 15.20°C | Sudeste |5.00 km/h | 87.00% | 900.80 hPa
  • 14-10-2018 03:00:00 | 15.50°C | Sur |8.00 km/h | 87.00% | 901.40 hPa
  • 14-10-2018 02:00:00 | 15.30°C | Sudeste |3.00 km/h | 91.00% | 901.90 hPa
  • 14-10-2018 01:00:00 | 16.00°C | Sudeste |6.00 km/h | 88.00% | 902.50 hPa
  • 14-10-2018 00:00:00 | 15.90°C | Sur |6.00 km/h | 89.00% | 903.00 hPa
  • 13-10-2018 23:00:00 | 13.30°C | Sudeste |2.00 km/h | 98.00% | 903.30 hPa
  • 13-10-2018 22:00:00 | 13.30°C | Calma |0.00 km/h | 98.00% | 903.80 hPa
  • 13-10-2018 21:00:00 | 13.00°C | Calma |0.00 km/h | 96.00% | 904.20 hPa
  • 13-10-2018 20:00:00 | 14.30°C | Calma |0.00 km/h | 93.00% | 904.60 hPa